Time;durP1;ratioP1;P1;durP2;ratioP2;P2;SDS_P1;SDS_P2;PMS_P1;PMS_P2;Temp;Humidity;BMP_temperature;BMP_pressure;BME280_temperature;BME280_humidity;BME280_pressure;Samples;Min_cycle;Max_cycle;Signal;HPM_P1;HPM_P2
2023/10/26 00:09:19;;;;;;;8.23;4.80;;;;;;;22.16;62.30;98724.31;40150456;29;20061;-72
2023/10/26 00:29:20;;;;;;;7.95;4.85;;;;;;;22.03;63.08;98694.03;40142456;29;20062;-73
2023/10/26 00:49:21;;;;;;;6.50;4.07;;;;;;;22.09;62.91;98676.69;40144408;29;20052;-72
2023/10/26 01:09:21;;;;;;;5.18;3.60;;;;;;;22.07;62.73;98676.88;40136434;29;20140;-72
2023/10/26 01:29:22;;;;;;;4.78;3.40;;;;;;;22.07;62.95;98660.25;40121365;29;20136;-72
2023/10/26 01:49:23;;;;;;;4.97;3.40;;;;;;;22.07;62.85;98647.88;40136473;29;20128;-72
2023/10/26 02:09:24;;;;;;;5.43;3.60;;;;;;;22.01;62.90;98637.19;40133496;29;20136;-72
2023/10/26 02:29:24;;;;;;;4.60;3.08;;;;;;;22.02;63.06;98641.47;40122112;29;20760;-70
2023/10/26 02:49:24;;;;;;;4.30;3.13;;;;;;;21.87;62.48;98623.72;40118448;29;20534;-72
2023/10/26 03:09:25;;;;;;;4.57;2.97;;;;;;;22.00;62.30;98638.19;40114090;29;20078;-71
2023/10/26 03:29:25;;;;;;;3.17;2.70;;;;;;;21.80;62.22;98613.97;40115359;29;20466;-73
2023/10/26 03:49:26;;;;;;;5.18;2.90;;;;;;;21.93;63.08;98661.72;40117448;29;20105;-73
2023/10/26 04:09:27;;;;;;;3.63;2.60;;;;;;;21.97;62.54;98638.50;40119981;29;20053;-72
2023/10/26 04:29:28;;;;;;;6.22;3.03;;;;;;;22.07;62.61;98645.25;40257974;29;20060;-73
2023/10/26 04:49:28;;;;;;;7.32;3.40;;;;;;;22.10;62.92;98644.09;40277620;29;20061;-71
2023/10/26 05:09:30;;;;;;;11.10;3.70;;;;;;;21.79;63.16;98605.28;40277787;29;20092;-75
2023/10/26 05:29:30;;;;;;;15.10;3.90;;;;;;;21.51;59.50;98650.34;40282278;29;20041;-76
2023/10/26 05:49:33;;;;;;;9.50;3.88;;;;;;;21.85;60.28;98673.09;40297275;29;20128;-81
2023/10/26 06:09:33;;;;;;;8.27;3.80;;;;;;;21.40;61.63;98642.75;40329923;29;20049;-81
2023/10/26 06:29:33;;;;;;;7.60;3.80;;;;;;;21.44;61.69;98683.56;40338450;29;20402;-81
2023/10/26 06:49:34;;;;;;;10.38;3.78;;;;;;;21.55;61.86;98692.97;40315960;29;21091;-77
2023/10/26 07:09:35;;;;;;;5.43;3.28;;;;;;;21.69;62.70;98709.97;40299512;29;20091;-76
2023/10/26 07:29:36;;;;;;;6.43;3.30;;;;;;;21.69;63.18;98742.41;40303802;29;20060;-78
2023/10/26 07:49:36;;;;;;;7.53;2.80;;;;;;;21.70;63.31;98730.91;40334469;29;20041;-76
2023/10/26 08:09:37;;;;;;;5.38;2.95;;;;;;;21.72;63.48;98757.06;40326485;29;20113;-76
2023/10/26 08:29:37;;;;;;;4.25;2.53;;;;;;;21.63;63.56;98756.25;40333455;29;20705;-77
2023/10/26 08:49:41;;;;;;;5.38;3.17;;;;;;;21.55;61.64;98758.81;40324724;29;20068;-76
2023/10/26 09:09:44;;;;;;;12.27;3.75;;;;;;;21.63;62.13;98736.97;40313156;29;20164;-77
2023/10/26 09:29:47;;;;;;;14.18;3.60;;;;;;;21.77;62.69;98765.31;40315862;29;20052;-78
2023/10/26 09:49:47;;;;;;;15.35;4.35;;;;;;;22.07;62.12;98787.59;40315514;29;20101;-80
2023/10/26 10:10:10;;;;;;;11.38;3.35;;;;;;;22.16;61.96;98774.41;40316374;29;20072;-79
2023/10/26 10:30:11;;;;;;;11.25;4.10;;;;;;;22.37;58.17;98766.84;40307475;29;20046;-78
2023/10/26 10:50:17;;;;;;;4.82;2.85;;;;;;;21.89;54.75;98757.94;40310357;29;20472;-79
2023/10/26 11:10:17;;;;;;;4.70;2.40;;;;;;;22.02;54.11;98724.00;40308993;29;20180;-81
2023/10/26 11:30:18;;;;;;;5.78;1.30;;;;;;;22.34;47.60;98732.88;40320413;29;20065;-86
2023/10/26 11:50:26;;;;;;;5.93;1.85;;;;;;;22.61;48.15;98722.97;40310001;29;20057;-82
2023/10/26 12:10:29;;;;;;;2.85;2.22;;;;;;;22.61;47.37;98688.66;40334244;29;20067;-86
2023/10/26 12:30:31;;;;;;;1.90;1.80;;;;;;;22.41;44.94;98738.34;40202212;29;20054;-90
2023/10/26 12:50:32;;;;;;;2.95;2.15;;;;;;;22.26;47.74;98718.88;40202736;29;21164;-86
2023/10/26 13:10:33;;;;;;;5.72;2.88;;;;;;;22.22;51.49;98697.28;40147241;29;20050;-78
2023/10/26 13:30:33;;;;;;;6.43;2.88;;;;;;;22.21;52.43;98691.19;40118557;29;20803;-83
2023/10/26 13:50:35;;;;;;;6.25;3.33;;;;;;;22.24;54.08;98721.69;40127466;29;20068;-78
2023/10/26 14:10:39;;;;;;;4.82;3.38;;;;;;;22.19;54.60;98689.72;40128897;29;20125;-82
2023/10/26 14:30:39;;;;;;;6.65;3.35;;;;;;;22.21;55.06;98704.38;40279523;29;20084;-75
2023/10/26 14:50:42;;;;;;;9.73;3.65;;;;;;;22.52;55.81;98702.88;40242477;29;20061;-83
2023/10/26 15:10:47;;;;;;;8.35;3.67;;;;;;;22.81;56.96;98697.03;40265297;29;20053;-82
2023/10/26 15:30:48;;;;;;;8.48;3.65;;;;;;;22.76;58.07;98701.97;40259856;29;20049;-85
2023/10/26 15:50:48;;;;;;;12.38;3.08;;;;;;;22.50;53.57;98733.88;40247622;29;20112;-81
2023/10/26 16:10:49;;;;;;;11.25;4.95;;;;;;;23.22;59.58;98725.09;40241759;29;20049;-75
2023/10/26 16:30:55;;;;;;;101.75;77.32;;;;;;;22.94;62.01;98720.22;40120900;29;20526;-78
2023/10/26 16:50:59;;;;;;;148.55;100.45;;;;;;;22.72;59.34;98716.50;40129772;29;20042;-75
2023/10/26 17:11:00;;;;;;;128.07;88.68;;;;;;;22.25;59.29;98633.66;40120371;29;20102;-78
2023/10/26 17:31:05;;;;;;;76.47;50.28;;;;;;;22.54;56.75;98683.25;40112704;29;20113;-74
2023/10/26 17:51:08;;;;;;;71.10;47.95;;;;;;;22.58;58.41;98667.91;40096946;29;20939;-73
2023/10/26 18:11:11;;;;;;;60.20;41.97;;;;;;;22.68;58.71;98643.97;40109142;29;20052;-76
2023/10/26 18:31:17;;;;;;;58.22;38.30;;;;;;;22.57;58.72;98649.59;40129834;29;20045;-71
2023/10/26 18:51:22;;;;;;;50.63;35.08;;;;;;;22.56;59.11;98720.03;40115382;29;20053;-72
2023/10/26 19:11:25;;;;;;;46.53;31.75;;;;;;;22.47;59.36;98655.06;40097397;29;20128;-72
2023/10/26 19:31:27;;;;;;;44.67;29.90;;;;;;;22.31;60.05;98653.28;40292009;29;20073;-73
2023/10/26 19:51:28;;;;;;;37.97;27.17;;;;;;;22.38;59.91;98630.56;40279469;29;20060;-74
2023/10/26 20:11:29;;;;;;;34.75;24.58;;;;;;;22.36;60.31;98609.59;40296740;29;20059;-74
2023/10/26 20:31:32;;;;;;;32.78;23.92;;;;;;;22.33;60.77;98598.56;40315163;29;20093;-79
2023/10/26 20:51:33;;;;;;;31.25;22.48;;;;;;;22.31;60.47;98585.53;40289787;29;20065;-69
2023/10/26 21:11:34;;;;;;;29.20;21.15;;;;;;;22.29;61.16;98560.34;40249996;29;20081;-70
2023/10/26 21:31:34;;;;;;;28.85;20.23;;;;;;;22.27;61.02;98530.69;40257784;29;20482;-69
2023/10/26 21:51:35;;;;;;;27.60;18.70;;;;;;;22.20;60.85;98546.38;40257777;29;20048;-70
2023/10/26 22:11:37;;;;;;;23.90;17.70;;;;;;;22.20;61.43;98557.75;40231877;29;20036;-69
2023/10/26 22:31:37;;;;;;;21.20;16.05;;;;;;;22.18;61.13;98566.78;40255810;29;20102;-69
2023/10/26 22:51:37;;;;;;;20.17;15.60;;;;;;;22.13;60.73;98563.84;40248125;29;20372;-70
2023/10/26 23:11:38;;;;;;;18.42;14.73;;;;;;;22.11;61.04;98547.41;40245215;29;20105;-71
2023/10/26 23:31:39;;;;;;;17.35;13.95;;;;;;;22.12;61.56;98556.94;40248079;29;20081;-69
2023/10/26 23:51:40;;;;;;;16.48;12.85;;;;;;;21.96;61.15;98515.63;40244381;29;20163;-71
